createdAt,value
2019-05-15T00:01:54.040Z,103024.33
2019-05-15T00:04:23.767Z,103025.16
2019-05-15T00:06:53.474Z,103023.51
2019-05-15T00:09:23.243Z,103022.33
2019-05-15T00:11:52.962Z,103021.64
2019-05-15T00:14:22.746Z,103010.09
2019-05-15T00:16:52.513Z,103014.67
2019-05-15T00:19:22.225Z,103015.61
2019-05-15T00:21:51.911Z,103014.27
2019-05-15T00:24:21.692Z,103014.64
2019-05-15T00:26:51.404Z,103011.62
2019-05-15T00:29:21.115Z,103009.44
2019-05-15T00:31:50.918Z,103003.15
2019-05-15T00:34:20.628Z,103006.57
2019-05-15T00:36:50.367Z,103006.09
2019-05-15T00:39:20.102Z,103013.77
2019-05-15T00:41:54.293Z,103003.98
2019-05-15T00:44:21.237Z,103002.31
2019-05-15T00:46:51.902Z,103003.76
2019-05-15T00:49:21.581Z,102999.86
2019-05-15T00:51:51.499Z,102998.14
2019-05-15T00:54:21.255Z,103002.02
2019-05-15T00:56:50.900Z,103000.94
2019-05-15T00:59:26.494Z,103004.89
2019-05-15T01:01:52.061Z,102998.06
2019-05-15T01:04:21.770Z,102997.16
2019-05-15T01:06:52.797Z,102993.16
2019-05-15T01:09:22.699Z,102996.28
2019-05-15T01:11:52.535Z,102997.55
2019-05-15T01:14:22.302Z,102992.73
2019-05-15T01:16:51.961Z,102988.69
2019-05-15T01:19:21.751Z,102987.45
2019-05-15T01:21:51.544Z,102992.91
2019-05-15T01:24:21.256Z,102992.03
2019-05-15T01:26:51.014Z,102988.44
2019-05-15T01:29:20.747Z,102985.88
2019-05-15T01:31:50.463Z,102984.98
2019-05-15T01:34:20.153Z,102985.45
2019-05-15T01:36:49.851Z,102982.25
2019-05-15T01:39:19.534Z,102983.63
2019-05-15T01:41:49.755Z,102985.45
2019-05-15T01:44:19.733Z,102987.80
2019-05-15T01:46:51.347Z,102983.39
2019-05-15T01:49:21.110Z,102984.27
2019-05-15T01:51:50.909Z,102981.11
2019-05-15T01:54:20.583Z,102984.67
2019-05-15T01:56:50.257Z,102974.89
2019-05-15T01:59:20.016Z,102980.83
2019-05-15T02:01:49.686Z,102974.69
2019-05-15T02:04:19.904Z,102975.63
2019-05-15T02:06:49.637Z,102977.30
2019-05-15T02:09:19.372Z,102977.79
2019-05-15T02:11:49.114Z,102969.85
2019-05-15T02:14:19.159Z,102979.77
2019-05-15T02:16:49.087Z,102970.28
2019-05-15T02:19:19.452Z,102971.95
2019-05-15T02:21:49.231Z,102964.30
2019-05-15T02:24:19.145Z,102969.64
2019-05-15T02:26:48.874Z,102963.42
2019-05-15T02:29:24.222Z,102968.30
2019-05-15T02:31:50.509Z,102958.52
2019-05-15T02:34:20.461Z,102954.74
2019-05-15T02:36:50.128Z,102957.49
2019-05-15T02:39:19.836Z,102956.83
2019-05-15T02:41:49.582Z,102952.55
2019-05-15T02:44:20.083Z,102951.31
2019-05-15T02:46:51.926Z,102957.64
2019-05-15T02:49:21.675Z,102956.74
2019-05-15T02:51:51.546Z,102950.91
2019-05-15T02:54:21.203Z,102952.68
2019-05-15T02:56:50.955Z,102950.47
2019-05-15T02:59:20.641Z,102949.68
2019-05-15T03:01:50.323Z,102952.34
2019-05-15T03:04:20.250Z,102950.14
2019-05-15T03:06:50.121Z,102947.48
2019-05-15T03:09:19.941Z,102945.30
2019-05-15T03:11:49.876Z,102946.67
2019-05-15T03:14:21.545Z,102943.55
2019-05-15T03:16:51.449Z,102942.25
2019-05-15T03:19:21.225Z,102943.59
2019-05-15T03:21:51.056Z,102943.78
2019-05-15T03:24:20.809Z,102948.81
2019-05-15T03:26:50.758Z,102943.48
2019-05-15T03:29:21.202Z,102943.86
2019-05-15T03:32:07.388Z,102950.48
2019-05-15T03:34:29.203Z,102945.92
2019-05-15T03:36:54.123Z,102947.30
2019-05-15T03:39:23.786Z,102949.09
2019-05-15T03:41:53.604Z,102946.91
2019-05-15T03:44:23.296Z,102946.53
2019-05-15T03:46:53.130Z,102945.61
2019-05-15T03:49:22.819Z,102938.25
2019-05-15T03:51:52.653Z,102937.33
2019-05-15T03:54:22.417Z,102949.33
2019-05-15T03:56:52.169Z,102935.81
2019-05-15T03:59:21.903Z,102935.72
2019-05-15T04:01:51.628Z,102942.47
2019-05-15T04:04:21.454Z,102942.50
2019-05-15T04:06:51.291Z,102933.22
2019-05-15T04:09:21.029Z,102934.53
2019-05-15T04:11:50.779Z,102935.88
2019-05-15T04:14:20.871Z,102929.91
2019-05-15T04:16:51.066Z,102936.94
2019-05-15T04:19:20.993Z,102933.28
2019-05-15T04:21:50.816Z,102936.84
2019-05-15T04:24:20.910Z,102928.79
2019-05-15T04:26:52.381Z,102921.70
2019-05-15T04:29:22.036Z,102917.42
2019-05-15T04:32:01.086Z,102911.48
2019-05-15T04:34:23.250Z,102906.78
2019-05-15T04:36:52.988Z,102912.08
2019-05-15T04:39:22.642Z,102906.11
2019-05-15T04:41:52.589Z,102910.38
2019-05-15T04:44:22.242Z,102911.05
2019-05-15T04:46:59.859Z,102912.80
2019-05-15T04:49:29.698Z,102915.84
2019-05-15T04:52:03.394Z,102917.05
2019-05-15T04:54:30.782Z,102915.14
2019-05-15T04:57:00.483Z,102907.56
2019-05-15T04:59:30.249Z,102916.10
2019-05-15T05:02:16.568Z,102912.55
2019-05-15T05:04:31.410Z,102913.64
2019-05-15T05:07:01.182Z,102908.58
2019-05-15T05:09:31.317Z,102911.20
2019-05-15T05:12:00.977Z,102916.37
2019-05-15T05:14:30.727Z,102914.52
2019-05-15T05:17:00.484Z,102912.66
2019-05-15T05:19:30.145Z,102909.09
2019-05-15T05:21:59.938Z,102913.81
2019-05-15T05:24:29.605Z,102916.86
2019-05-15T05:26:59.328Z,102914.50
2019-05-15T05:29:29.071Z,102917.47
2019-05-15T05:31:59.141Z,102916.62
2019-05-15T05:34:28.958Z,102918.08
2019-05-15T05:36:59.045Z,102918.88
2019-05-15T05:39:29.437Z,102921.53
2019-05-15T05:41:59.147Z,102920.34
2019-05-15T05:44:29.267Z,102914.56
2019-05-15T05:47:02.883Z,102918.92
2019-05-15T05:49:32.744Z,102912.55
2019-05-15T05:52:02.416Z,102920.27
2019-05-15T05:54:32.192Z,102913.48
2019-05-15T05:57:01.871Z,102913.20
2019-05-15T05:59:31.596Z,102913.20
2019-05-15T06:02:01.281Z,102905.20
2019-05-15T06:04:31.017Z,102911.77
2019-05-15T06:07:09.245Z,102911.42
2019-05-15T06:09:32.230Z,102913.50
2019-05-15T06:12:01.979Z,102914.33
2019-05-15T06:14:31.664Z,102916.41
2019-05-15T06:17:01.348Z,102918.64
2019-05-15T06:19:31.502Z,102919.84
2019-05-15T06:22:02.303Z,102921.30
2019-05-15T06:24:32.117Z,102910.28
2019-05-15T06:27:01.884Z,102920.10
2019-05-15T06:29:31.685Z,102920.47
2019-05-15T06:32:01.451Z,102913.31
2019-05-15T06:34:31.214Z,102917.55
2019-05-15T06:37:00.988Z,102918.55
2019-05-15T06:39:30.730Z,102911.92
2019-05-15T06:42:00.504Z,102916.31
2019-05-15T06:44:30.231Z,102915.31
2019-05-15T06:47:08.181Z,102920.47
2019-05-15T06:49:37.987Z,102914.14
2019-05-15T06:52:08.813Z,102909.77
2019-05-15T06:54:38.871Z,102918.83
2019-05-15T06:57:09.222Z,102919.52
2019-05-15T06:59:39.136Z,102913.43
2019-05-15T07:02:08.907Z,102911.51
2019-05-15T07:04:38.641Z,102912.08
2019-05-15T07:07:11.123Z,102910.34
2019-05-15T07:09:39.960Z,102918.77
2019-05-15T07:12:09.766Z,102915.06
2019-05-15T07:14:39.591Z,102899.80
2019-05-15T07:17:09.481Z,102915.02
2019-05-15T07:19:39.470Z,102906.87
2019-05-15T07:22:09.594Z,102911.02
2019-05-15T07:24:39.350Z,102907.38
2019-05-15T07:27:09.182Z,102909.22
2019-05-15T07:29:38.982Z,102908.47
2019-05-15T07:32:08.736Z,102905.66
2019-05-15T07:34:38.550Z,102897.47
2019-05-15T07:37:09.769Z,102905.00
2019-05-15T07:39:40.001Z,102901.16
2019-05-15T07:42:09.932Z,102898.20
2019-05-15T07:44:39.743Z,102901.55
2019-05-15T07:47:09.487Z,102895.92
2019-05-15T07:49:39.245Z,102893.05
2019-05-15T07:52:09.107Z,102901.55
2019-05-15T07:54:38.928Z,102896.67
2019-05-15T07:57:09.061Z,102896.72
2019-05-15T07:59:38.843Z,102894.05
2019-05-15T08:02:08.645Z,102899.25
2019-05-15T08:04:38.390Z,102897.33
2019-05-15T08:07:09.104Z,102890.03
2019-05-15T08:09:39.260Z,102892.84
2019-05-15T08:12:08.986Z,102893.30
2019-05-15T08:14:39.012Z,102893.34
2019-05-15T08:17:08.974Z,102887.80
2019-05-15T08:19:38.821Z,102891.18
2019-05-15T08:22:08.976Z,102889.77
2019-05-15T08:24:39.291Z,102887.39
2019-05-15T08:27:09.454Z,102881.25
2019-05-15T08:29:39.286Z,102874.94
2019-05-15T08:32:09.114Z,102871.89
2019-05-15T08:34:38.845Z,102872.08
2019-05-15T08:37:08.746Z,102874.57
2019-05-15T08:39:38.593Z,102873.04
2019-05-15T08:42:08.529Z,102860.94
2019-05-15T08:44:38.778Z,102855.56
2019-05-15T08:47:08.638Z,102864.63
2019-05-15T08:49:41.044Z,102853.05
2019-05-15T08:52:10.377Z,102856.44
2019-05-15T08:54:40.280Z,102849.78
2019-05-15T08:57:10.091Z,102850.86
2019-05-15T08:59:39.814Z,102842.33
2019-05-15T09:02:09.563Z,102847.44
2019-05-15T09:04:39.475Z,102834.87
2019-05-15T09:07:09.437Z,102842.95
2019-05-15T09:09:39.452Z,102839.34
2019-05-15T09:12:09.373Z,102841.69
2019-05-15T09:14:39.106Z,102837.23
2019-05-15T09:17:09.037Z,102826.94
2019-05-15T09:19:38.907Z,102829.86
2019-05-15T09:22:09.229Z,102826.15
2019-05-15T09:24:39.338Z,102833.86
2019-05-15T09:27:10.813Z,102823.84
2019-05-15T09:29:40.714Z,102821.45
2019-05-15T09:32:12.562Z,102825.78
2019-05-15T09:34:50.640Z,102819.67
2019-05-15T09:37:13.839Z,102820.58
2019-05-15T09:39:43.640Z,102818.58
2019-05-15T09:42:13.596Z,102812.53
2019-05-15T09:44:43.406Z,102814.81
2019-05-15T09:47:13.393Z,102812.95
2019-05-15T09:49:43.219Z,102810.50
2019-05-15T09:52:13.329Z,102809.91
2019-05-15T09:54:43.160Z,102809.28
2019-05-15T09:57:12.901Z,102798.21
2019-05-15T09:59:42.721Z,102794.01
2019-05-15T10:02:12.655Z,102791.69
2019-05-15T10:04:42.551Z,102790.91
2019-05-15T10:07:12.422Z,102788.91
2019-05-15T10:09:42.147Z,102783.09
2019-05-15T10:12:12.019Z,102777.63
2019-05-15T10:14:41.988Z,102778.38
2019-05-15T10:17:11.843Z,102775.34
2019-05-15T10:19:41.603Z,102780.28
2019-05-15T10:22:11.516Z,102770.79
2019-05-15T10:24:41.300Z,102769.39
2019-05-15T10:27:11.111Z,102764.59
2019-05-15T10:29:40.878Z,102767.65
2019-05-15T10:32:10.689Z,102754.30
2019-05-15T10:34:40.473Z,102764.50
2019-05-15T10:37:10.274Z,102763.05
2019-05-15T10:39:40.076Z,102762.16
2019-05-15T10:42:09.797Z,102760.73
2019-05-15T10:44:39.573Z,102760.88
2019-05-15T10:47:10.551Z,102752.17
2019-05-15T10:49:40.329Z,102756.70
2019-05-15T10:52:11.333Z,102744.41
2019-05-15T10:54:41.461Z,102749.91
2019-05-15T10:57:11.592Z,102754.47
2019-05-15T10:59:41.404Z,102747.23
2019-05-15T11:02:11.266Z,102741.64
2019-05-15T11:04:41.318Z,102746.84
2019-05-15T11:07:11.397Z,102742.88
2019-05-15T11:09:41.607Z,102741.52
2019-05-15T11:12:11.518Z,102740.41
2019-05-15T11:14:41.364Z,102727.31
2019-05-15T11:17:11.234Z,102733.38
2019-05-15T11:19:41.101Z,102732.13
2019-05-15T11:22:10.899Z,102730.23
2019-05-15T11:24:40.770Z,102717.16
2019-05-15T11:27:10.636Z,102727.27
2019-05-15T11:29:40.513Z,102725.16
2019-05-15T11:32:10.419Z,102723.32
2019-05-15T11:34:40.190Z,102716.30
2019-05-15T11:37:10.089Z,102714.26
2019-05-15T11:39:45.792Z,102719.57
2019-05-15T11:42:11.566Z,102711.61
2019-05-15T11:44:41.433Z,102711.45
2019-05-15T11:47:11.383Z,102710.92
2019-05-15T11:49:41.142Z,102712.89
2019-05-15T11:52:11.070Z,102706.20
2019-05-15T11:54:40.848Z,102708.28
2019-05-15T11:57:10.681Z,102705.34
2019-05-15T11:59:45.195Z,102715.02
2019-05-15T12:02:12.122Z,102710.10
2019-05-15T12:04:41.986Z,102701.70
2019-05-15T12:07:11.782Z,102709.73
2019-05-15T12:09:41.566Z,102712.61
2019-05-15T12:12:11.415Z,102710.12
2019-05-15T12:14:41.371Z,102707.66
2019-05-15T12:17:15.357Z,102697.06
2019-05-15T12:19:42.555Z,102702.47
2019-05-15T12:22:12.269Z,102693.86
2019-05-15T12:24:42.035Z,102702.17
2019-05-15T12:27:17.741Z,102702.53
2019-05-15T12:29:43.426Z,102699.84
2019-05-15T12:32:26.463Z,102695.88
2019-05-15T12:34:44.792Z,102695.44
2019-05-15T12:37:14.608Z,102690.46
2019-05-15T12:39:44.452Z,102689.62
2019-05-15T13:00:00.470Z,102681.12
2019-05-15T13:02:30.291Z,102675.00
2019-05-15T13:05:00.147Z,102683.08
2019-05-15T13:07:30.143Z,102675.53
2019-05-15T13:10:00.007Z,102678.44
2019-05-15T13:12:29.880Z,102669.56
2019-05-15T13:14:59.689Z,102675.45
2019-05-15T13:17:29.606Z,102673.27
2019-05-15T13:19:59.529Z,102671.98
2019-05-15T13:22:29.300Z,102665.38
2019-05-15T13:24:59.058Z,102662.97
2019-05-15T13:27:28.869Z,102661.81
2019-05-15T13:29:58.581Z,102660.72
2019-05-15T13:32:28.699Z,102665.44
2019-05-15T13:34:59.508Z,102653.63
2019-05-15T13:37:30.844Z,102662.31
2019-05-15T13:40:01.106Z,102655.41
2019-05-15T13:42:30.992Z,102649.50
2019-05-15T13:45:00.971Z,102642.30
2019-05-15T13:47:33.854Z,102640.48
2019-05-15T13:50:07.790Z,102638.39
2019-05-15T13:52:39.285Z,102643.15
2019-05-15T13:55:10.044Z,102639.02
2019-05-15T13:57:39.953Z,102653.68
2019-05-15T14:00:10.934Z,102636.64
2019-05-15T14:02:40.683Z,102651.38
2019-05-15T14:05:10.575Z,102644.88
2019-05-15T14:07:48.642Z,102643.02
2019-05-15T14:10:12.389Z,102645.22
2019-05-15T14:12:42.244Z,102635.14
2019-05-15T14:15:12.319Z,102643.70
2019-05-15T14:17:42.290Z,102633.44
2019-05-15T14:20:12.243Z,102631.65
2019-05-15T14:22:41.990Z,102640.84
2019-05-15T14:25:12.060Z,102636.57
2019-05-15T14:27:42.213Z,102630.45
2019-05-15T14:30:13.515Z,102636.84
2019-05-15T14:32:43.353Z,102633.86
2019-05-15T14:35:13.559Z,102633.32
2019-05-15T14:37:43.408Z,102637.13
2019-05-15T14:40:13.675Z,102633.14
2019-05-15T14:42:43.604Z,102626.76
2019-05-15T14:45:13.527Z,102626.11
2019-05-15T14:47:44.396Z,102625.16
2019-05-15T14:50:14.295Z,102624.41
2019-05-15T14:52:44.181Z,102625.12
2019-05-15T14:55:14.241Z,102624.14
2019-05-15T14:57:44.030Z,102619.16
2019-05-15T15:00:14.613Z,102617.00
2019-05-15T15:02:44.419Z,102619.75
2019-05-15T15:05:14.347Z,102623.00
2019-05-15T15:07:44.293Z,102623.88
2019-05-15T15:10:14.159Z,102622.30
2019-05-15T15:12:43.952Z,102622.44
2019-05-15T15:15:14.632Z,102619.23
2019-05-15T15:17:44.427Z,102623.81
2019-05-15T15:20:17.556Z,102611.60
2019-05-15T15:22:48.496Z,102613.63
2019-05-15T15:25:18.629Z,102612.13
2019-05-15T15:27:48.480Z,102612.05
2019-05-15T15:30:18.999Z,102612.06
2019-05-15T15:32:49.119Z,102610.10
2019-05-15T15:35:19.492Z,102609.77
2019-05-15T15:37:49.331Z,102609.28
2019-05-15T15:40:19.534Z,102606.95
2019-05-15T15:42:49.354Z,102601.09
2019-05-15T15:45:19.521Z,102604.22
2019-05-15T15:47:50.614Z,102607.70
2019-05-15T15:50:20.959Z,102599.77
2019-05-15T15:52:50.766Z,102609.77
2019-05-15T15:55:20.614Z,102601.64
2019-05-15T15:57:50.453Z,102599.86
2019-05-15T16:00:20.845Z,102594.77
2019-05-15T16:02:50.606Z,102590.94
2019-05-15T16:05:20.569Z,102601.41
2019-05-15T16:07:50.498Z,102581.50
2019-05-15T16:10:20.414Z,102582.30
2019-05-15T16:12:50.365Z,102581.63
2019-05-15T16:15:20.270Z,102581.36
2019-05-15T16:17:50.067Z,102586.48
2019-05-15T16:20:20.600Z,102573.84
2019-05-15T16:22:50.443Z,102562.90
2019-05-15T16:25:20.371Z,102558.78
2019-05-15T16:27:50.111Z,102566.83
2019-05-15T16:30:19.994Z,102565.83
2019-05-15T16:32:50.073Z,102565.87
2019-05-15T16:35:19.894Z,102567.89
2019-05-15T16:37:49.786Z,102559.65
2019-05-15T16:40:19.716Z,102564.78
2019-05-15T16:42:49.615Z,102565.65
2019-05-15T16:45:19.883Z,102567.52
2019-05-15T16:47:51.163Z,102557.22
2019-05-15T16:50:20.960Z,102565.16
2019-05-15T16:52:50.692Z,102559.58
2019-05-15T16:55:20.499Z,102561.66
2019-05-15T16:57:50.252Z,102561.75
2019-05-15T17:00:21.502Z,102564.20
2019-05-15T17:03:08.171Z,102564.87
2019-05-15T17:05:23.081Z,102564.19
2019-05-15T17:07:52.987Z,102566.24
2019-05-15T17:10:22.819Z,102572.81
2019-05-15T17:12:52.729Z,102568.39
2019-05-15T17:15:22.684Z,102568.89
2019-05-15T17:17:52.600Z,102570.27
2019-05-15T17:20:22.435Z,102574.96
2019-05-15T17:22:52.175Z,102569.53
2019-05-15T17:25:21.943Z,102567.06
2019-05-15T17:27:51.780Z,102570.98
2019-05-15T17:30:21.780Z,102568.98
2019-05-15T17:32:51.778Z,102562.95
2019-05-15T17:35:21.685Z,102572.53
2019-05-15T17:37:51.487Z,102562.20
2019-05-15T17:40:21.379Z,102560.39
2019-05-15T17:42:51.250Z,102556.68
2019-05-15T17:45:21.207Z,102556.97
2019-05-15T17:47:53.138Z,102563.59
2019-05-15T17:50:22.882Z,102558.55
2019-05-15T17:52:52.633Z,102554.67
2019-05-15T17:55:22.516Z,102556.39
2019-05-15T17:57:57.143Z,102550.69
2019-05-15T18:00:23.964Z,102551.66
2019-05-15T18:02:54.245Z,102549.94
2019-05-15T18:05:25.246Z,102552.56
2019-05-15T18:07:55.239Z,102561.26
2019-05-15T18:10:25.116Z,102557.66
2019-05-15T18:12:54.930Z,102562.30
2019-05-15T18:15:24.735Z,102557.72
2019-05-15T18:17:54.703Z,102567.52
2019-05-15T18:20:26.288Z,102561.77
2019-05-15T18:22:58.811Z,102567.80
2019-05-15T18:25:27.620Z,102560.75
2019-05-15T18:27:59.238Z,102563.13
2019-05-15T18:30:28.988Z,102563.05
2019-05-15T18:32:59.087Z,102568.05
2019-05-15T18:35:29.519Z,102576.63
2019-05-15T18:38:00.333Z,102580.91
2019-05-15T18:40:30.316Z,102575.06
2019-05-15T18:43:00.149Z,102576.58
2019-05-15T18:45:29.958Z,102581.31
2019-05-15T18:47:59.710Z,102584.03
2019-05-15T18:50:29.436Z,102578.22
2019-05-15T18:52:59.314Z,102581.98
2019-05-15T18:55:29.384Z,102581.88
2019-05-15T18:57:59.273Z,102583.34
2019-05-15T19:00:29.851Z,102582.31
2019-05-15T19:02:59.997Z,102584.56
2019-05-15T19:05:29.854Z,102580.00
2019-05-15T19:07:59.588Z,102583.98
2019-05-15T19:10:29.373Z,102577.84
2019-05-15T19:12:59.176Z,102588.78
2019-05-15T19:15:29.702Z,102577.97
2019-05-15T19:18:00.331Z,102582.63
2019-05-15T19:20:31.793Z,102586.80
2019-05-15T19:23:01.716Z,102586.61
2019-05-15T19:25:31.502Z,102590.87
2019-05-15T19:28:01.252Z,102585.61
2019-05-15T19:30:31.000Z,102583.59
2019-05-15T19:33:01.011Z,102587.03
2019-05-15T19:35:30.896Z,102590.50
2019-05-15T19:38:00.709Z,102590.05
2019-05-15T19:40:30.570Z,102586.34
2019-05-15T19:43:03.891Z,102592.52
2019-05-15T19:45:31.908Z,102592.22
2019-05-15T19:48:01.978Z,102588.99
2019-05-15T19:50:31.890Z,102591.72
2019-05-15T19:53:01.695Z,102593.09
2019-05-15T19:55:31.455Z,102594.20
2019-05-15T19:58:01.253Z,102584.62
2019-05-15T20:00:31.140Z,102594.03
2019-05-15T20:03:00.937Z,102598.91
2019-05-15T20:05:30.898Z,102596.44
2019-05-15T20:08:00.708Z,102596.80
2019-05-15T20:10:30.683Z,102593.41
2019-05-15T20:13:00.844Z,102594.45
2019-05-15T20:15:30.684Z,102597.05
2019-05-15T20:18:00.535Z,102591.03
2019-05-15T20:20:30.675Z,102597.31
2019-05-15T20:23:00.788Z,102594.19
2019-05-15T20:25:30.761Z,102587.67
2019-05-15T20:28:00.595Z,102588.95
2019-05-15T20:30:30.640Z,102587.60
2019-05-15T20:33:00.414Z,102585.36
2019-05-15T20:35:30.532Z,102585.30
2019-05-15T20:38:00.285Z,102583.19
2019-05-15T20:40:30.103Z,102583.95
2019-05-15T20:42:59.953Z,102579.48
2019-05-15T20:45:29.863Z,102578.13
2019-05-15T20:47:59.724Z,102580.36
2019-05-15T20:50:29.543Z,102582.53
2019-05-15T20:52:59.492Z,102583.48
2019-05-15T20:55:29.242Z,102573.98
2019-05-15T20:57:59.026Z,102572.39
2019-05-15T21:00:29.016Z,102568.73
2019-05-15T21:02:58.771Z,102564.52
2019-05-15T21:05:28.568Z,102576.13
2019-05-15T21:07:58.640Z,102567.97
2019-05-15T21:10:28.429Z,102569.09
2019-05-15T21:12:59.428Z,102569.78
2019-05-15T21:15:29.384Z,102566.48
2019-05-15T21:18:12.440Z,102573.95
2019-05-15T21:20:30.766Z,102573.13
2019-05-15T21:23:01.334Z,102565.00
2019-05-15T21:25:31.394Z,102569.89
2019-05-15T21:28:01.550Z,102562.95
2019-05-15T21:30:31.490Z,102569.07
2019-05-15T21:33:01.416Z,102562.05
2019-05-15T21:35:31.318Z,102560.31
2019-05-15T21:38:01.373Z,102557.98
2019-05-15T21:40:31.420Z,102562.14
2019-05-15T21:43:01.317Z,102556.00
2019-05-15T21:45:31.114Z,102556.81
2019-05-15T21:48:00.891Z,102558.06
2019-05-15T21:50:30.641Z,102553.58
2019-05-15T21:53:00.451Z,102552.76
2019-05-15T21:55:30.265Z,102552.76
2019-05-15T21:58:00.160Z,102552.22
2019-05-15T22:00:39.376Z,102549.84
2019-05-15T22:03:09.312Z,102553.34
2019-05-15T22:05:41.510Z,102545.73
2019-05-15T22:08:12.189Z,102545.94
2019-05-15T22:10:42.502Z,102558.92
2019-05-15T22:13:12.533Z,102544.72
2019-05-15T22:15:42.683Z,102546.15
2019-05-15T22:18:12.481Z,102546.56
2019-05-15T22:20:42.241Z,102540.07
2019-05-15T22:23:12.109Z,102538.42
2019-05-15T22:25:42.131Z,102531.52
2019-05-15T22:28:11.965Z,102532.09
2019-05-15T22:30:41.772Z,102533.23
2019-05-15T22:33:11.555Z,102532.42
2019-05-15T22:35:41.294Z,102527.04
2019-05-15T22:38:11.191Z,102524.05
2019-05-15T22:40:41.327Z,102521.37
2019-05-15T22:43:11.076Z,102521.87
2019-05-15T22:45:40.762Z,102520.72
2019-05-15T22:48:10.452Z,102510.73
2019-05-15T22:50:42.086Z,102513.48
2019-05-15T22:53:11.853Z,102510.77
2019-05-15T22:55:41.561Z,102505.38
2019-05-15T22:58:11.662Z,102506.89
2019-05-15T23:00:41.483Z,102506.05
2019-05-15T23:03:11.333Z,102505.34
2019-05-15T23:05:41.199Z,102498.45
2019-05-15T23:08:11.077Z,102495.13
2019-05-15T23:10:40.790Z,102487.61
2019-05-15T23:13:10.596Z,102487.53
2019-05-15T23:15:40.393Z,102486.59
2019-05-15T23:18:10.118Z,102479.27
2019-05-15T23:20:39.857Z,102473.56
2019-05-15T23:23:09.601Z,102470.13
2019-05-15T23:25:39.505Z,102468.77
2019-05-15T23:28:09.502Z,102474.75
2019-05-15T23:30:39.238Z,102465.19
2019-05-15T23:33:09.056Z,102459.42
2019-05-15T23:35:41.481Z,102462.13
2019-05-15T23:38:10.509Z,102462.78
2019-05-15T23:40:40.322Z,102457.77
2019-05-15T23:43:10.299Z,102457.61
2019-05-15T23:48:38.182Z,102460.34
2019-05-15T23:51:08.565Z,102465.28
2019-05-15T23:53:38.440Z,102450.32
2019-05-15T23:56:09.346Z,102454.26
2019-05-15T23:58:39.170Z,102455.22
